Huvudsida
METAR-TAF:

METAR-TAF

Flygplatser :

Aeraport Vitsebsk

Vitsebsk, Vitryssland

latitud: 55-10N, longitud: 030-13E, höjd: 176 m

Aktuellt väderrapport

Denna rapport gjordes för 3 timmar och 30 minuter sedan, klockan 16:00 UTC
Stilla vind
Temperatur 4°C
Fuktighet 87%
Tryck 1025 hPa
Sikt: 7000 m

METAR: UMII 211600Z 00000MPS 7000 NSC 04/02 Q1025 R23/D NOSIG

Tid: 22:30 (19:30 UTC)

Väderprognos

Denna rapport gjordes för 5 timmar och 25 minuter sedan, klockan 14:05 UTC
Prognos gäller från 21 kl. 15 UTC till 21 kl. 24 UTC
Vind 2 kt varierande vindriktning
Sikt: 6000 m
Temporärt
från 21 kl. 15 UTC till 21 kl. 18 UTC
Sikt: 1000 m
Spridda moln på en höjd av 300 ft
fuktdis
Temporärt
från 21 kl. 18 UTC till 21 kl. 24 UTC
Sikt: 0300 m
på en höjd av 200 ft
dimma

TAF: UMII 211405Z 2115/2124 VRB01MPS 6000 NSC TEMPO 2115/2118 1000 BR SCT003 TEMPO 2118/2124 0300 FG VV002

Aktuella väderrapporter och prognoser från 4000 flygplatser (METAR- och TAF-rapporter).

De tillgängliga stationerna syns som gula och röda prickar på kartan.

För musen över prickarna för att se namnen på stationerna.

Klicka sedan för att få väderrapporter och prognoser.

För att ändra kartan: Klicka på de gröna knapparna med ett svart kors på för att zooma in; den gröna knappen med ett streck på för att zooma ut; eller på de gröna pilarna för angränsande kartor.


METAR-TAF: